sensor_id;sensor_type;location;lat;lon;timestamp;P1;durP1;ratioP1;P2;durP2;ratioP2
1174;SDS011;576;48.418;10.074;2023-05-13T00:02:17;1.60;;;1.50;;
1174;SDS011;576;48.418;10.074;2023-05-13T00:04:45;1.63;;;1.53;;
1174;SDS011;576;48.418;10.074;2023-05-13T00:07:15;1.70;;;1.60;;
1174;SDS011;576;48.418;10.074;2023-05-13T00:09:43;1.90;;;1.80;;
1174;SDS011;576;48.418;10.074;2023-05-13T00:12:11;2.07;;;1.80;;
1174;SDS011;576;48.418;10.074;2023-05-13T00:14:39;1.90;;;1.80;;
1174;SDS011;576;48.418;10.074;2023-05-13T00:17:07;1.73;;;1.43;;
1174;SDS011;576;48.418;10.074;2023-05-13T00:19:35;1.50;;;1.40;;
1174;SDS011;576;48.418;10.074;2023-05-13T00:22:04;1.67;;;1.57;;
1174;SDS011;576;48.418;10.074;2023-05-13T00:24:33;1.67;;;1.57;;
1174;SDS011;576;48.418;10.074;2023-05-13T00:27:01;1.60;;;1.50;;
1174;SDS011;576;48.418;10.074;2023-05-13T00:29:30;1.60;;;1.50;;
1174;SDS011;576;48.418;10.074;2023-05-13T00:31:58;1.90;;;1.67;;
1174;SDS011;576;48.418;10.074;2023-05-13T00:34:27;1.80;;;1.70;;
1174;SDS011;576;48.418;10.074;2023-05-13T00:36:55;1.47;;;1.30;;
1174;SDS011;576;48.418;10.074;2023-05-13T00:39:23;1.73;;;1.53;;
1174;SDS011;576;48.418;10.074;2023-05-13T00:41:53;1.57;;;1.47;;
1174;SDS011;576;48.418;10.074;2023-05-13T00:44:22;1.77;;;1.67;;
1174;SDS011;576;48.418;10.074;2023-05-13T00:46:50;1.77;;;1.40;;
1174;SDS011;576;48.418;10.074;2023-05-13T00:49:19;1.60;;;1.50;;
1174;SDS011;576;48.418;10.074;2023-05-13T00:51:47;2.10;;;2.00;;
1174;SDS011;576;48.418;10.074;2023-05-13T00:54:17;1.53;;;1.43;;
1174;SDS011;576;48.418;10.074;2023-05-13T00:56:45;1.50;;;1.40;;
1174;SDS011;576;48.418;10.074;2023-05-13T00:59:15;1.50;;;1.40;;
1174;SDS011;576;48.418;10.074;2023-05-13T01:01:46;1.67;;;1.57;;
1174;SDS011;576;48.418;10.074;2023-05-13T01:04:29;1.37;;;1.27;;
1174;SDS011;576;48.418;10.074;2023-05-13T01:07:06;1.63;;;1.53;;
1174;SDS011;576;48.418;10.074;2023-05-13T01:09:42;1.63;;;1.53;;
1174;SDS011;576;48.418;10.074;2023-05-13T01:12:19;1.50;;;1.43;;
1174;SDS011;576;48.418;10.074;2023-05-13T01:14:56;1.60;;;1.50;;
1174;SDS011;576;48.418;10.074;2023-05-13T01:17:34;1.30;;;1.20;;
1174;SDS011;576;48.418;10.074;2023-05-13T01:20:20;2.10;;;1.63;;
1174;SDS011;576;48.418;10.074;2023-05-13T01:22:51;1.73;;;1.63;;
1174;SDS011;576;48.418;10.074;2023-05-13T01:25:19;1.30;;;1.30;;
1174;SDS011;576;48.418;10.074;2023-05-13T01:27:48;1.33;;;1.23;;
1174;SDS011;576;48.418;10.074;2023-05-13T01:30:16;1.37;;;1.27;;
1174;SDS011;576;48.418;10.074;2023-05-13T01:32:46;1.57;;;1.47;;
1174;SDS011;576;48.418;10.074;2023-05-13T01:35:15;1.80;;;1.70;;
1174;SDS011;576;48.418;10.074;2023-05-13T01:37:46;1.70;;;1.60;;
1174;SDS011;576;48.418;10.074;2023-05-13T01:40:17;1.33;;;1.23;;
1174;SDS011;576;48.418;10.074;2023-05-13T01:43:01;1.63;;;1.53;;
1174;SDS011;576;48.418;10.074;2023-05-13T01:45:29;1.40;;;1.40;;
1174;SDS011;576;48.418;10.074;2023-05-13T01:47:59;1.43;;;1.33;;
1174;SDS011;576;48.418;10.074;2023-05-13T01:50:37;1.50;;;1.40;;
1174;SDS011;576;48.418;10.074;2023-05-13T01:53:06;1.43;;;1.30;;
1174;SDS011;576;48.418;10.074;2023-05-13T01:55:38;1.40;;;1.30;;
1174;SDS011;576;48.418;10.074;2023-05-13T01:58:07;1.47;;;1.37;;
1174;SDS011;576;48.418;10.074;2023-05-13T02:00:35;1.47;;;1.37;;
1174;SDS011;576;48.418;10.074;2023-05-13T02:03:03;1.23;;;1.20;;
1174;SDS011;576;48.418;10.074;2023-05-13T02:05:32;1.27;;;1.20;;
1174;SDS011;576;48.418;10.074;2023-05-13T02:08:05;1.53;;;1.43;;
1174;SDS011;576;48.418;10.074;2023-05-13T02:10:33;1.70;;;1.43;;
1174;SDS011;576;48.418;10.074;2023-05-13T02:13:02;1.20;;;1.20;;
1174;SDS011;576;48.418;10.074;2023-05-13T02:15:31;1.50;;;1.40;;
1174;SDS011;576;48.418;10.074;2023-05-13T02:17:59;1.87;;;1.67;;
1174;SDS011;576;48.418;10.074;2023-05-13T02:20:28;1.70;;;1.60;;
1174;SDS011;576;48.418;10.074;2023-05-13T02:22:56;1.80;;;1.70;;
1174;SDS011;576;48.418;10.074;2023-05-13T02:25:26;1.37;;;1.27;;
1174;SDS011;576;48.418;10.074;2023-05-13T02:27:54;1.10;;;1.10;;
1174;SDS011;576;48.418;10.074;2023-05-13T02:30:24;1.37;;;1.27;;
1174;SDS011;576;48.418;10.074;2023-05-13T02:32:53;3.33;;;1.47;;
1174;SDS011;576;48.418;10.074;2023-05-13T02:35:22;1.13;;;1.03;;
1174;SDS011;576;48.418;10.074;2023-05-13T02:37:55;1.50;;;1.40;;
1174;SDS011;576;48.418;10.074;2023-05-13T02:40:24;1.30;;;1.30;;
1174;SDS011;576;48.418;10.074;2023-05-13T02:42:53;2.00;;;1.77;;
1174;SDS011;576;48.418;10.074;2023-05-13T02:45:31;1.50;;;1.40;;
1174;SDS011;576;48.418;10.074;2023-05-13T02:48:00;1.57;;;1.30;;
1174;SDS011;576;48.418;10.074;2023-05-13T02:50:28;1.33;;;1.23;;
1174;SDS011;576;48.418;10.074;2023-05-13T02:52:56;1.57;;;1.47;;
1174;SDS011;576;48.418;10.074;2023-05-13T02:55:25;1.10;;;1.10;;
1174;SDS011;576;48.418;10.074;2023-05-13T02:57:53;1.43;;;1.33;;
1174;SDS011;576;48.418;10.074;2023-05-13T03:00:22;1.10;;;1.10;;
1174;SDS011;576;48.418;10.074;2023-05-13T03:02:52;1.20;;;1.20;;
1174;SDS011;576;48.418;10.074;2023-05-13T03:05:21;1.03;;;1.03;;
1174;SDS011;576;48.418;10.074;2023-05-13T03:07:50;1.60;;;1.50;;
1174;SDS011;576;48.418;10.074;2023-05-13T03:10:18;1.03;;;1.03;;
1174;SDS011;576;48.418;10.074;2023-05-13T03:12:46;1.33;;;1.23;;
1174;SDS011;576;48.418;10.074;2023-05-13T03:15:15;1.10;;;1.00;;
1174;SDS011;576;48.418;10.074;2023-05-13T03:17:43;1.13;;;1.13;;
1174;SDS011;576;48.418;10.074;2023-05-13T03:20:13;1.20;;;1.20;;
1174;SDS011;576;48.418;10.074;2023-05-13T03:22:41;1.03;;;1.03;;
1174;SDS011;576;48.418;10.074;2023-05-13T03:25:10;1.60;;;1.50;;
1174;SDS011;576;48.418;10.074;2023-05-13T03:27:43;1.73;;;1.60;;
1174;SDS011;576;48.418;10.074;2023-05-13T03:30:12;1.13;;;1.03;;
1174;SDS011;576;48.418;10.074;2023-05-13T03:32:47;1.37;;;1.27;;
1174;SDS011;576;48.418;10.074;2023-05-13T03:35:17;1.30;;;1.20;;
1174;SDS011;576;48.418;10.074;2023-05-13T03:37:46;1.00;;;1.00;;
1174;SDS011;576;48.418;10.074;2023-05-13T03:40:15;1.43;;;1.33;;
1174;SDS011;576;48.418;10.074;2023-05-13T03:42:43;1.20;;;1.20;;
1174;SDS011;576;48.418;10.074;2023-05-13T03:45:11;1.33;;;1.23;;
1174;SDS011;576;48.418;10.074;2023-05-13T03:47:42;1.23;;;1.23;;
1174;SDS011;576;48.418;10.074;2023-05-13T03:50:14;1.30;;;1.20;;
1174;SDS011;576;48.418;10.074;2023-05-13T03:52:47;1.30;;;1.20;;
1174;SDS011;576;48.418;10.074;2023-05-13T03:55:17;0.90;;;0.90;;
1174;SDS011;576;48.418;10.074;2023-05-13T03:57:45;1.40;;;1.30;;
1174;SDS011;576;48.418;10.074;2023-05-13T04:00:16;1.10;;;1.00;;
1174;SDS011;576;48.418;10.074;2023-05-13T04:02:46;1.33;;;1.23;;
1174;SDS011;576;48.418;10.074;2023-05-13T04:05:15;1.30;;;1.20;;
1174;SDS011;576;48.418;10.074;2023-05-13T04:07:45;1.33;;;1.23;;
1174;SDS011;576;48.418;10.074;2023-05-13T04:10:14;1.70;;;0.90;;
1174;SDS011;576;48.418;10.074;2023-05-13T04:12:43;1.40;;;1.00;;
1174;SDS011;576;48.418;10.074;2023-05-13T04:15:11;0.80;;;0.80;;
1174;SDS011;576;48.418;10.074;2023-05-13T04:17:39;1.43;;;1.20;;
1174;SDS011;576;48.418;10.074;2023-05-13T04:20:07;1.03;;;1.03;;
1174;SDS011;576;48.418;10.074;2023-05-13T04:22:36;1.10;;;1.10;;
1174;SDS011;576;48.418;10.074;2023-05-13T04:25:06;1.40;;;1.30;;
1174;SDS011;576;48.418;10.074;2023-05-13T04:27:35;1.50;;;1.40;;
1174;SDS011;576;48.418;10.074;2023-05-13T04:30:09;0.90;;;0.90;;
1174;SDS011;576;48.418;10.074;2023-05-13T04:32:40;1.23;;;1.23;;
1174;SDS011;576;48.418;10.074;2023-05-13T04:35:10;0.90;;;0.90;;
1174;SDS011;576;48.418;10.074;2023-05-13T04:37:40;1.50;;;1.40;;
1174;SDS011;576;48.418;10.074;2023-05-13T04:40:14;1.60;;;1.50;;
1174;SDS011;576;48.418;10.074;2023-05-13T04:42:42;1.00;;;1.00;;
1174;SDS011;576;48.418;10.074;2023-05-13T04:45:10;1.00;;;1.00;;
1174;SDS011;576;48.418;10.074;2023-05-13T04:47:40;1.37;;;1.37;;
1174;SDS011;576;48.418;10.074;2023-05-13T04:50:08;1.10;;;1.10;;
1174;SDS011;576;48.418;10.074;2023-05-13T04:52:37;1.30;;;1.20;;
1174;SDS011;576;48.418;10.074;2023-05-13T04:55:08;1.33;;;1.23;;
1174;SDS011;576;48.418;10.074;2023-05-13T04:57:39;1.03;;;0.93;;
1174;SDS011;576;48.418;10.074;2023-05-13T05:00:08;0.90;;;0.90;;
1174;SDS011;576;48.418;10.074;2023-05-13T05:02:38;1.00;;;1.00;;
1174;SDS011;576;48.418;10.074;2023-05-13T05:05:07;1.10;;;1.10;;
1174;SDS011;576;48.418;10.074;2023-05-13T05:07:36;1.43;;;1.33;;
1174;SDS011;576;48.418;10.074;2023-05-13T05:10:07;1.30;;;1.20;;
1174;SDS011;576;48.418;10.074;2023-05-13T05:12:41;1.60;;;1.50;;
1174;SDS011;576;48.418;10.074;2023-05-13T05:15:10;1.60;;;1.50;;
1174;SDS011;576;48.418;10.074;2023-05-13T05:17:43;1.37;;;1.30;;
1174;SDS011;576;48.418;10.074;2023-05-13T05:20:12;1.60;;;1.50;;
1174;SDS011;576;48.418;10.074;2023-05-13T05:22:40;1.30;;;1.30;;
1174;SDS011;576;48.418;10.074;2023-05-13T05:25:12;1.50;;;1.07;;
1174;SDS011;576;48.418;10.074;2023-05-13T05:27:41;1.47;;;1.37;;
1174;SDS011;576;48.418;10.074;2023-05-13T05:30:10;1.43;;;1.33;;
1174;SDS011;576;48.418;10.074;2023-05-13T05:32:39;1.10;;;1.10;;
1174;SDS011;576;48.418;10.074;2023-05-13T05:35:08;1.50;;;1.40;;
1174;SDS011;576;48.418;10.074;2023-05-13T05:37:37;1.50;;;1.10;;
1174;SDS011;576;48.418;10.074;2023-05-13T05:40:05;1.40;;;1.30;;
1174;SDS011;576;48.418;10.074;2023-05-13T05:42:37;1.37;;;1.30;;
1174;SDS011;576;48.418;10.074;2023-05-13T05:45:08;1.30;;;1.30;;
1174;SDS011;576;48.418;10.074;2023-05-13T05:47:37;1.80;;;1.70;;
1174;SDS011;576;48.418;10.074;2023-05-13T05:50:05;1.33;;;1.23;;
1174;SDS011;576;48.418;10.074;2023-05-13T05:52:34;1.30;;;1.20;;
1174;SDS011;576;48.418;10.074;2023-05-13T05:55:02;1.80;;;1.43;;
1174;SDS011;576;48.418;10.074;2023-05-13T05:57:32;1.57;;;1.47;;
1174;SDS011;576;48.418;10.074;2023-05-13T06:00:00;1.40;;;1.30;;
1174;SDS011;576;48.418;10.074;2023-05-13T06:02:30;1.50;;;1.40;;
1174;SDS011;576;48.418;10.074;2023-05-13T06:04:59;1.50;;;1.40;;
1174;SDS011;576;48.418;10.074;2023-05-13T06:07:27;1.33;;;1.33;;
1174;SDS011;576;48.418;10.074;2023-05-13T06:09:55;1.40;;;1.30;;
1174;SDS011;576;48.418;10.074;2023-05-13T06:12:23;1.70;;;1.60;;
1174;SDS011;576;48.418;10.074;2023-05-13T06:14:51;1.80;;;1.70;;
1174;SDS011;576;48.418;10.074;2023-05-13T06:17:19;2.43;;;1.50;;
1174;SDS011;576;48.418;10.074;2023-05-13T06:19:49;1.37;;;1.30;;
1174;SDS011;576;48.418;10.074;2023-05-13T06:22:17;1.70;;;1.60;;
1174;SDS011;576;48.418;10.074;2023-05-13T06:24:46;1.63;;;1.53;;
1174;SDS011;576;48.418;10.074;2023-05-13T06:27:14;1.53;;;1.37;;
1174;SDS011;576;48.418;10.074;2023-05-13T06:29:42;2.07;;;1.67;;
1174;SDS011;576;48.418;10.074;2023-05-13T06:32:11;1.60;;;1.50;;
1174;SDS011;576;48.418;10.074;2023-05-13T06:34:40;1.80;;;1.70;;
1174;SDS011;576;48.418;10.074;2023-05-13T06:37:12;1.50;;;1.40;;
1174;SDS011;576;48.418;10.074;2023-05-13T06:39:41;1.60;;;1.50;;
1174;SDS011;576;48.418;10.074;2023-05-13T06:42:09;1.40;;;1.30;;
1174;SDS011;576;48.418;10.074;2023-05-13T06:44:44;1.67;;;1.57;;
1174;SDS011;576;48.418;10.074;2023-05-13T06:47:12;2.70;;;1.70;;
1174;SDS011;576;48.418;10.074;2023-05-13T06:49:42;1.33;;;1.30;;
1174;SDS011;576;48.418;10.074;2023-05-13T06:52:10;1.53;;;1.43;;
1174;SDS011;576;48.418;10.074;2023-05-13T06:54:39;1.50;;;1.40;;
1174;SDS011;576;48.418;10.074;2023-05-13T06:57:08;1.80;;;1.70;;
1174;SDS011;576;48.418;10.074;2023-05-13T06:59:36;2.17;;;1.80;;
1174;SDS011;576;48.418;10.074;2023-05-13T07:02:04;1.70;;;1.60;;
1174;SDS011;576;48.418;10.074;2023-05-13T07:04:35;1.70;;;1.60;;
1174;SDS011;576;48.418;10.074;2023-05-13T07:07:03;1.60;;;1.50;;
1174;SDS011;576;48.418;10.074;2023-05-13T07:09:31;1.70;;;1.60;;
1174;SDS011;576;48.418;10.074;2023-05-13T07:12:01;2.07;;;1.50;;
1174;SDS011;576;48.418;10.074;2023-05-13T07:14:29;1.50;;;1.40;;
1174;SDS011;576;48.418;10.074;2023-05-13T07:16:57;1.60;;;1.50;;
1174;SDS011;576;48.418;10.074;2023-05-13T07:19:26;1.00;;;1.00;;
1174;SDS011;576;48.418;10.074;2023-05-13T07:21:54;2.23;;;1.70;;
1174;SDS011;576;48.418;10.074;2023-05-13T07:24:23;1.73;;;1.63;;
1174;SDS011;576;48.418;10.074;2023-05-13T07:26:51;1.90;;;1.80;;
1174;SDS011;576;48.418;10.074;2023-05-13T07:29:20;1.57;;;1.50;;
1174;SDS011;576;48.418;10.074;2023-05-13T07:31:51;1.70;;;1.60;;
1174;SDS011;576;48.418;10.074;2023-05-13T07:34:19;1.63;;;1.53;;
1174;SDS011;576;48.418;10.074;2023-05-13T07:36:47;1.90;;;1.80;;
1174;SDS011;576;48.418;10.074;2023-05-13T07:39:15;1.80;;;1.70;;
1174;SDS011;576;48.418;10.074;2023-05-13T07:41:44;1.73;;;1.63;;
1174;SDS011;576;48.418;10.074;2023-05-13T07:44:12;1.60;;;1.50;;
1174;SDS011;576;48.418;10.074;2023-05-13T07:46:42;1.73;;;1.63;;
1174;SDS011;576;48.418;10.074;2023-05-13T07:49:10;1.60;;;1.50;;
1174;SDS011;576;48.418;10.074;2023-05-13T07:51:38;1.87;;;1.67;;
1174;SDS011;576;48.418;10.074;2023-05-13T07:54:07;2.50;;;1.60;;
1174;SDS011;576;48.418;10.074;2023-05-13T07:56:36;1.97;;;1.87;;
1174;SDS011;576;48.418;10.074;2023-05-13T07:59:04;1.73;;;1.63;;
1174;SDS011;576;48.418;10.074;2023-05-13T08:01:32;1.80;;;1.47;;
1174;SDS011;576;48.418;10.074;2023-05-13T08:04:02;1.83;;;1.73;;
1174;SDS011;576;48.418;10.074;2023-05-13T08:06:30;1.70;;;1.60;;
1174;SDS011;576;48.418;10.074;2023-05-13T08:08:59;2.77;;;1.83;;
1174;SDS011;576;48.418;10.074;2023-05-13T08:11:27;2.60;;;1.70;;
1174;SDS011;576;48.418;10.074;2023-05-13T08:13:56;2.60;;;2.30;;
1174;SDS011;576;48.418;10.074;2023-05-13T08:16:24;2.13;;;2.03;;
1174;SDS011;576;48.418;10.074;2023-05-13T08:18:53;2.57;;;2.17;;
1174;SDS011;576;48.418;10.074;2023-05-13T08:21:23;1.80;;;1.70;;
1174;SDS011;576;48.418;10.074;2023-05-13T08:23:51;2.30;;;2.10;;
1174;SDS011;576;48.418;10.074;2023-05-13T08:26:19;1.87;;;1.77;;
1174;SDS011;576;48.418;10.074;2023-05-13T08:28:48;2.43;;;1.90;;
1174;SDS011;576;48.418;10.074;2023-05-13T08:31:20;2.60;;;2.03;;
1174;SDS011;576;48.418;10.074;2023-05-13T08:33:50;2.10;;;2.00;;
1174;SDS011;576;48.418;10.074;2023-05-13T08:36:19;1.70;;;1.60;;
1174;SDS011;576;48.418;10.074;2023-05-13T08:39:02;2.17;;;1.97;;
1174;SDS011;576;48.418;10.074;2023-05-13T08:41:30;1.90;;;1.80;;
1174;SDS011;576;48.418;10.074;2023-05-13T08:44:00;2.33;;;2.23;;
1174;SDS011;576;48.418;10.074;2023-05-13T08:46:32;2.13;;;1.93;;
1174;SDS011;576;48.418;10.074;2023-05-13T08:49:02;1.97;;;1.87;;
1174;SDS011;576;48.418;10.074;2023-05-13T08:51:31;2.00;;;1.90;;
1174;SDS011;576;48.418;10.074;2023-05-13T08:53:59;2.17;;;2.07;;
1174;SDS011;576;48.418;10.074;2023-05-13T08:56:29;2.73;;;1.87;;
1174;SDS011;576;48.418;10.074;2023-05-13T08:58:58;1.50;;;1.40;;
1174;SDS011;576;48.418;10.074;2023-05-13T09:01:26;1.90;;;1.80;;
1174;SDS011;576;48.418;10.074;2023-05-13T09:03:56;1.80;;;1.70;;
1174;SDS011;576;48.418;10.074;2023-05-13T09:06:26;2.20;;;2.00;;
1174;SDS011;576;48.418;10.074;2023-05-13T09:08:55;2.20;;;1.93;;
1174;SDS011;576;48.418;10.074;2023-05-13T09:11:25;2.07;;;1.93;;
1174;SDS011;576;48.418;10.074;2023-05-13T09:13:56;2.00;;;1.90;;
1174;SDS011;576;48.418;10.074;2023-05-13T09:16:26;2.20;;;2.00;;
1174;SDS011;576;48.418;10.074;2023-05-13T09:18:56;2.60;;;1.73;;
1174;SDS011;576;48.418;10.074;2023-05-13T09:21:26;3.07;;;2.50;;
1174;SDS011;576;48.418;10.074;2023-05-13T09:24:06;2.17;;;2.07;;
1174;SDS011;576;48.418;10.074;2023-05-13T09:26:38;2.40;;;2.20;;
1174;SDS011;576;48.418;10.074;2023-05-13T09:29:15;2.23;;;2.03;;
1174;SDS011;576;48.418;10.074;2023-05-13T09:31:46;3.03;;;1.90;;
1174;SDS011;576;48.418;10.074;2023-05-13T09:34:23;2.30;;;2.10;;
1174;SDS011;576;48.418;10.074;2023-05-13T09:36:59;2.13;;;1.90;;
1174;SDS011;576;48.418;10.074;2023-05-13T09:39:28;1.73;;;1.63;;
1174;SDS011;576;48.418;10.074;2023-05-13T09:42:01;2.10;;;1.90;;
1174;SDS011;576;48.418;10.074;2023-05-13T09:44:31;2.10;;;1.77;;
1174;SDS011;576;48.418;10.074;2023-05-13T09:46:59;2.50;;;2.00;;
1174;SDS011;576;48.418;10.074;2023-05-13T09:49:29;2.03;;;1.93;;
1174;SDS011;576;48.418;10.074;2023-05-13T09:51:58;2.13;;;1.83;;
1174;SDS011;576;48.418;10.074;2023-05-13T09:54:29;2.27;;;2.17;;
1174;SDS011;576;48.418;10.074;2023-05-13T09:57:03;1.90;;;1.80;;
1174;SDS011;576;48.418;10.074;2023-05-13T09:59:31;2.27;;;2.10;;
1174;SDS011;576;48.418;10.074;2023-05-13T10:02:00;2.40;;;2.20;;
1174;SDS011;576;48.418;10.074;2023-05-13T10:04:31;2.00;;;1.90;;
1174;SDS011;576;48.418;10.074;2023-05-13T10:07:01;2.97;;;2.70;;
1174;SDS011;576;48.418;10.074;2023-05-13T10:09:33;2.43;;;2.23;;
1174;SDS011;576;48.418;10.074;2023-05-13T10:12:05;1.83;;;1.73;;
1174;SDS011;576;48.418;10.074;2023-05-13T10:14:34;2.27;;;2.03;;
1174;SDS011;576;48.418;10.074;2023-05-13T10:17:04;2.00;;;1.90;;
1174;SDS011;576;48.418;10.074;2023-05-13T10:19:33;2.83;;;2.30;;
1174;SDS011;576;48.418;10.074;2023-05-13T10:22:02;2.40;;;2.30;;
1174;SDS011;576;48.418;10.074;2023-05-13T10:24:31;2.10;;;2.00;;
1174;SDS011;576;48.418;10.074;2023-05-13T10:27:04;2.60;;;2.40;;
1174;SDS011;576;48.418;10.074;2023-05-13T10:29:33;2.50;;;2.30;;
1174;SDS011;576;48.418;10.074;2023-05-13T10:32:04;2.47;;;2.27;;
1174;SDS011;576;48.418;10.074;2023-05-13T10:34:34;3.60;;;1.73;;
1174;SDS011;576;48.418;10.074;2023-05-13T10:40:10;2.33;;;1.97;;
1174;SDS011;576;48.418;10.074;2023-05-13T10:42:51;2.10;;;2.00;;
1174;SDS011;576;48.418;10.074;2023-05-13T10:45:27;2.17;;;1.90;;
1174;SDS011;576;48.418;10.074;2023-05-13T10:48:02;2.07;;;1.97;;
1174;SDS011;576;48.418;10.074;2023-05-13T10:50:34;2.40;;;2.20;;
1174;SDS011;576;48.418;10.074;2023-05-13T10:53:06;2.40;;;2.20;;
1174;SDS011;576;48.418;10.074;2023-05-13T10:55:39;2.13;;;1.90;;
1174;SDS011;576;48.418;10.074;2023-05-13T10:58:12;3.70;;;2.87;;
1174;SDS011;576;48.418;10.074;2023-05-13T11:00:42;2.00;;;1.90;;
1174;SDS011;576;48.418;10.074;2023-05-13T11:03:11;1.93;;;1.60;;
1174;SDS011;576;48.418;10.074;2023-05-13T11:05:45;1.73;;;1.60;;
1174;SDS011;576;48.418;10.074;2023-05-13T11:08:37;1.80;;;1.70;;
1174;SDS011;576;48.418;10.074;2023-05-13T11:11:16;1.83;;;1.73;;
1174;SDS011;576;48.418;10.074;2023-05-13T11:14:04;2.30;;;2.10;;
1174;SDS011;576;48.418;10.074;2023-05-13T11:16:44;1.80;;;1.70;;
1174;SDS011;576;48.418;10.074;2023-05-13T11:19:19;2.10;;;1.90;;
1174;SDS011;576;48.418;10.074;2023-05-13T11:21:50;2.30;;;2.10;;
1174;SDS011;576;48.418;10.074;2023-05-13T11:24:19;2.70;;;2.50;;
1174;SDS011;576;48.418;10.074;2023-05-13T11:26:49;2.10;;;1.90;;
1174;SDS011;576;48.418;10.074;2023-05-13T11:29:29;2.10;;;2.00;;
1174;SDS011;576;48.418;10.074;2023-05-13T11:31:59;1.77;;;1.67;;
1174;SDS011;576;48.418;10.074;2023-05-13T11:34:28;2.10;;;2.00;;
1174;SDS011;576;48.418;10.074;2023-05-13T11:37:05;1.83;;;1.70;;
1174;SDS011;576;48.418;10.074;2023-05-13T11:39:36;1.90;;;1.73;;
1174;SDS011;576;48.418;10.074;2023-05-13T11:42:06;2.37;;;2.27;;
1174;SDS011;576;48.418;10.074;2023-05-13T11:44:43;2.40;;;2.20;;
1174;SDS011;576;48.418;10.074;2023-05-13T11:47:13;2.03;;;1.93;;
1174;SDS011;576;48.418;10.074;2023-05-13T11:49:41;1.93;;;1.83;;
1174;SDS011;576;48.418;10.074;2023-05-13T11:52:11;2.30;;;2.10;;
1174;SDS011;576;48.418;10.074;2023-05-13T11:54:41;1.80;;;1.70;;
1174;SDS011;576;48.418;10.074;2023-05-13T11:57:18;1.80;;;1.70;;
1174;SDS011;576;48.418;10.074;2023-05-13T11:59:54;1.60;;;1.50;;
1174;SDS011;576;48.418;10.074;2023-05-13T12:02:24;2.60;;;1.70;;
1174;SDS011;576;48.418;10.074;2023-05-13T12:04:54;1.87;;;1.77;;
1174;SDS011;576;48.418;10.074;2023-05-13T12:07:26;1.60;;;1.50;;
1174;SDS011;576;48.418;10.074;2023-05-13T12:09:55;1.60;;;1.50;;
1174;SDS011;576;48.418;10.074;2023-05-13T12:12:25;2.00;;;1.90;;
1174;SDS011;576;48.418;10.074;2023-05-13T12:14:57;1.93;;;1.83;;
1174;SDS011;576;48.418;10.074;2023-05-13T12:17:26;1.60;;;1.50;;
1174;SDS011;576;48.418;10.074;2023-05-13T12:20:07;2.10;;;2.00;;
1174;SDS011;576;48.418;10.074;2023-05-13T12:22:50;2.27;;;2.17;;
1174;SDS011;576;48.418;10.074;2023-05-13T12:25:32;2.23;;;2.03;;
1174;SDS011;576;48.418;10.074;2023-05-13T12:28:11;1.77;;;1.67;;
1174;SDS011;576;48.418;10.074;2023-05-13T12:30:47;1.50;;;1.40;;
1174;SDS011;576;48.418;10.074;2023-05-13T12:33:17;2.20;;;2.10;;
1174;SDS011;576;48.418;10.074;2023-05-13T12:35:47;1.70;;;1.60;;
1174;SDS011;576;48.418;10.074;2023-05-13T12:38:17;1.80;;;1.70;;
1174;SDS011;576;48.418;10.074;2023-05-13T12:40:47;2.00;;;1.90;;
1174;SDS011;576;48.418;10.074;2023-05-13T12:43:17;1.60;;;1.50;;
1174;SDS011;576;48.418;10.074;2023-05-13T12:45:50;1.77;;;1.67;;
1174;SDS011;576;48.418;10.074;2023-05-13T12:48:24;2.13;;;1.93;;
1174;SDS011;576;48.418;10.074;2023-05-13T12:50:52;1.57;;;1.47;;
1174;SDS011;576;48.418;10.074;2023-05-13T12:53:21;1.63;;;1.53;;
1174;SDS011;576;48.418;10.074;2023-05-13T12:55:50;1.63;;;1.53;;
1174;SDS011;576;48.418;10.074;2023-05-13T12:58:18;1.50;;;1.40;;
1174;SDS011;576;48.418;10.074;2023-05-13T13:00:47;2.50;;;1.70;;
1174;SDS011;576;48.418;10.074;2023-05-13T13:03:16;2.03;;;1.90;;
1174;SDS011;576;48.418;10.074;2023-05-13T13:05:47;2.30;;;2.10;;
1174;SDS011;576;48.418;10.074;2023-05-13T13:08:17;2.20;;;2.10;;
1174;SDS011;576;48.418;10.074;2023-05-13T13:10:45;1.90;;;1.80;;
1174;SDS011;576;48.418;10.074;2023-05-13T13:13:13;1.50;;;1.40;;
1174;SDS011;576;48.418;10.074;2023-05-13T13:15:41;1.60;;;1.50;;
1174;SDS011;576;48.418;10.074;2023-05-13T13:18:10;1.80;;;1.70;;
1174;SDS011;576;48.418;10.074;2023-05-13T13:20:39;1.87;;;1.77;;
1174;SDS011;576;48.418;10.074;2023-05-13T13:23:07;1.67;;;1.57;;
1174;SDS011;576;48.418;10.074;2023-05-13T13:25:36;1.73;;;1.63;;
1174;SDS011;576;48.418;10.074;2023-05-13T13:28:04;1.53;;;1.43;;
1174;SDS011;576;48.418;10.074;2023-05-13T13:30:32;1.33;;;1.33;;
1174;SDS011;576;48.418;10.074;2023-05-13T13:33:00;1.50;;;1.40;;
1174;SDS011;576;48.418;10.074;2023-05-13T13:35:30;1.70;;;1.60;;
1174;SDS011;576;48.418;10.074;2023-05-13T13:37:58;1.77;;;1.63;;
1174;SDS011;576;48.418;10.074;2023-05-13T13:40:26;2.13;;;1.97;;
1174;SDS011;576;48.418;10.074;2023-05-13T13:42:54;1.60;;;1.50;;
1174;SDS011;576;48.418;10.074;2023-05-13T13:45:23;2.27;;;1.80;;
1174;SDS011;576;48.418;10.074;2023-05-13T13:47:51;1.40;;;1.40;;
1174;SDS011;576;48.418;10.074;2023-05-13T13:50:19;1.80;;;1.70;;
1174;SDS011;576;48.418;10.074;2023-05-13T13:52:49;1.73;;;1.53;;
1174;SDS011;576;48.418;10.074;2023-05-13T13:55:18;1.60;;;1.50;;
1174;SDS011;576;48.418;10.074;2023-05-13T13:57:47;1.40;;;1.30;;
1174;SDS011;576;48.418;10.074;2023-05-13T14:00:15;1.70;;;1.60;;
1174;SDS011;576;48.418;10.074;2023-05-13T14:02:43;1.40;;;1.40;;
1174;SDS011;576;48.418;10.074;2023-05-13T14:05:12;1.70;;;1.60;;
1174;SDS011;576;48.418;10.074;2023-05-13T14:07:41;1.73;;;1.63;;
1174;SDS011;576;48.418;10.074;2023-05-13T14:10:10;2.00;;;1.90;;
1174;SDS011;576;48.418;10.074;2023-05-13T14:12:39;1.70;;;1.27;;
1174;SDS011;576;48.418;10.074;2023-05-13T14:15:07;1.87;;;1.77;;
1174;SDS011;576;48.418;10.074;2023-05-13T14:17:36;1.67;;;1.57;;
1174;SDS011;576;48.418;10.074;2023-05-13T14:20:04;1.40;;;1.33;;
1174;SDS011;576;48.418;10.074;2023-05-13T14:22:35;1.63;;;1.53;;
1174;SDS011;576;48.418;10.074;2023-05-13T14:25:03;1.73;;;1.63;;
1174;SDS011;576;48.418;10.074;2023-05-13T14:27:34;1.87;;;1.50;;
1174;SDS011;576;48.418;10.074;2023-05-13T14:30:03;1.70;;;1.60;;
1174;SDS011;576;48.418;10.074;2023-05-13T14:32:32;1.40;;;1.30;;
1174;SDS011;576;48.418;10.074;2023-05-13T14:35:00;1.50;;;1.40;;
1174;SDS011;576;48.418;10.074;2023-05-13T14:37:28;1.73;;;1.63;;
1174;SDS011;576;48.418;10.074;2023-05-13T14:39:56;1.53;;;1.43;;
1174;SDS011;576;48.418;10.074;2023-05-13T14:42:24;1.53;;;1.53;;
1174;SDS011;576;48.418;10.074;2023-05-13T14:44:54;1.70;;;1.60;;
1174;SDS011;576;48.418;10.074;2023-05-13T14:47:22;1.50;;;1.37;;
1174;SDS011;576;48.418;10.074;2023-05-13T14:49:50;1.73;;;1.63;;
1174;SDS011;576;48.418;10.074;2023-05-13T14:52:19;1.60;;;1.50;;
1174;SDS011;576;48.418;10.074;2023-05-13T14:54:47;1.40;;;1.30;;
1174;SDS011;576;48.418;10.074;2023-05-13T14:57:15;1.70;;;1.60;;
1174;SDS011;576;48.418;10.074;2023-05-13T14:59:43;1.63;;;1.53;;
1174;SDS011;576;48.418;10.074;2023-05-13T15:02:13;2.00;;;1.90;;
1174;SDS011;576;48.418;10.074;2023-05-13T15:04:42;1.67;;;1.57;;
1174;SDS011;576;48.418;10.074;2023-05-13T15:07:11;1.60;;;1.50;;
1174;SDS011;576;48.418;10.074;2023-05-13T15:09:39;1.67;;;1.57;;
1174;SDS011;576;48.418;10.074;2023-05-13T15:12:08;1.70;;;1.60;;
1174;SDS011;576;48.418;10.074;2023-05-13T15:14:36;1.53;;;1.43;;
1174;SDS011;576;48.418;10.074;2023-05-13T15:17:04;1.53;;;1.47;;
1174;SDS011;576;48.418;10.074;2023-05-13T15:19:38;1.80;;;1.70;;
1174;SDS011;576;48.418;10.074;2023-05-13T15:22:06;1.70;;;1.47;;
1174;SDS011;576;48.418;10.074;2023-05-13T15:24:34;1.40;;;1.30;;
1174;SDS011;576;48.418;10.074;2023-05-13T15:27:04;1.57;;;1.47;;
1174;SDS011;576;48.418;10.074;2023-05-13T15:29:32;1.93;;;1.83;;
1174;SDS011;576;48.418;10.074;2023-05-13T15:32:01;1.23;;;1.23;;
1174;SDS011;576;48.418;10.074;2023-05-13T15:34:30;1.57;;;1.47;;
1174;SDS011;576;48.418;10.074;2023-05-13T15:36:59;1.70;;;1.60;;